RYR51SF EBCI-LPPR
Flight info
| Callsign | RYR51SF |
|---|---|
| Flight time | N/A |
| Altitude | 31000 |
| Route | CIV N872 LESDO DCT KOVIN/N0444F390 DCT NIDUV DCT KIHVI UN872 ERIGA DCT FUJTI DCT ATLEN DCT INSID T326 ASPOR |
| Aircraft | B38M/M-SDE2E3GIM1RWY/HB1 |
Departure
| Time | 2026-04-29 09:20 |
|---|---|
| Airport | Brussels South Charleroi Airport (EBCI) |
Arrival
| Time | N/A |
|---|---|
| Airport | Francisco de Sá Carneiro Airport (LPPR) |
| Time | Latitude | Longitude | Altitude | Speed | Heading |
|---|---|---|---|---|---|
| 2026-04-29 08:55 | 50.46851 | 4.47043 | 615 ft | 0 kts | 335° |
| 2026-04-29 09:12 | 50.46841 | 4.47052 | 629 ft | 2 kts | 333° |
| 2026-04-29 09:12 | 50.46831 | 4.47060 | 631 ft | 2 kts | 330° |
| 2026-04-29 09:12 | 50.46817 | 4.47074 | 624 ft | 2 kts | 316° |
| 2026-04-29 09:12 | 50.46810 | 4.47097 | 625 ft | 2 kts | 256° |
| 2026-04-29 09:13 | 50.46816 | 4.47121 | 625 ft | 2 kts | 245° |
| 2026-04-29 09:13 | 50.46823 | 4.47143 | 619 ft | 1 kts | 245° |
| 2026-04-29 09:13 | 50.46824 | 4.47147 | 618 ft | 0 kts | 246° |
| 2026-04-29 09:16 | 50.46813 | 4.47110 | 621 ft | 9 kts | 246° |
| 2026-04-29 09:17 | 50.46770 | 4.46959 | 623 ft | 19 kts | 245° |
| 2026-04-29 09:17 | 50.46717 | 4.46790 | 619 ft | 14 kts | 225° |
| 2026-04-29 09:17 | 50.46623 | 4.46796 | 615 ft | 15 kts | 194° |
| 2026-04-29 09:17 | 50.46562 | 4.46645 | 620 ft | 22 kts | 245° |
| 2026-04-29 09:18 | 50.46484 | 4.46377 | 622 ft | 30 kts | 245° |
| 2026-04-29 09:18 | 50.46396 | 4.46076 | 617 ft | 32 kts | 245° |
| 2026-04-29 09:18 | 50.46305 | 4.45760 | 623 ft | 32 kts | 245° |
| 2026-04-29 09:18 | 50.46215 | 4.45452 | 624 ft | 32 kts | 245° |
| 2026-04-29 09:19 | 50.46129 | 4.45155 | 622 ft | 25 kts | 246° |
| 2026-04-29 09:19 | 50.46058 | 4.44911 | 626 ft | 25 kts | 245° |
| 2026-04-29 09:19 | 50.45984 | 4.44772 | 622 ft | 15 kts | 190° |
| 2026-04-29 09:19 | 50.45895 | 4.44824 | 628 ft | 13 kts | 129° |
| 2026-04-29 09:20 | 50.45900 | 4.44988 | 622 ft | 23 kts | 66° |
| 2026-04-29 09:20 | 50.46062 | 4.45549 | 621 ft | 95 kts | 65° |
| 2026-04-29 09:20 | 50.46430 | 4.46818 | 694 ft | 152 kts | 66° |
| 2026-04-29 09:20 | 50.46870 | 4.48373 | 1558 ft | 159 kts | 68° |
| 2026-04-29 09:21 | 50.47457 | 4.49921 | 2523 ft | 173 kts | 54° |
| 2026-04-29 09:21 | 50.48305 | 4.51412 | 3201 ft | 194 kts | 53° |
| 2026-04-29 09:21 | 50.49210 | 4.53063 | 3909 ft | 213 kts | 52° |
| 2026-04-29 09:21 | 50.50266 | 4.54849 | 4699 ft | 228 kts | 51° |
| 2026-04-29 09:22 | 50.51372 | 4.56676 | 5699 ft | 236 kts | 50° |
| 2026-04-29 09:22 | 50.52529 | 4.58594 | 6529 ft | 248 kts | 49° |
| 2026-04-29 09:22 | 50.53958 | 4.60214 | 7381 ft | 263 kts | 26° |
| 2026-04-29 09:23 | 50.54803 | 4.60603 | 7754 ft | 273 kts | 12° |
| 2026-04-29 09:23 | 50.56661 | 4.60371 | 8642 ft | 288 kts | 343° |
| 2026-04-29 09:23 | 50.58326 | 4.58557 | 9627 ft | 302 kts | 313° |
| 2026-04-29 09:23 | 50.59370 | 4.55692 | 10527 ft | 312 kts | 290° |
| 2026-04-29 09:24 | 50.59778 | 4.52281 | 11196 ft | 326 kts | 270° |
| 2026-04-29 09:24 | 50.59616 | 4.48645 | 11812 ft | 339 kts | 266° |
| 2026-04-29 09:24 | 50.59470 | 4.44898 | 12711 ft | 342 kts | 267° |
| 2026-04-29 09:24 | 50.59336 | 4.41139 | 13641 ft | 346 kts | 268° |
| 2026-04-29 09:25 | 50.59210 | 4.37317 | 14473 ft | 351 kts | 268° |
| 2026-04-29 09:25 | 50.59085 | 4.33459 | 15279 ft | 355 kts | 268° |
| 2026-04-29 09:25 | 50.58961 | 4.29586 | 16040 ft | 360 kts | 268° |
| 2026-04-29 09:25 | 50.58833 | 4.25588 | 16831 ft | 364 kts | 268° |
| 2026-04-29 09:26 | 50.58705 | 4.21640 | 17578 ft | 368 kts | 268° |
| 2026-04-29 09:26 | 50.58571 | 4.17583 | 18332 ft | 373 kts | 268° |
| 2026-04-29 09:26 | 50.58435 | 4.13470 | 18984 ft | 377 kts | 268° |
| 2026-04-29 09:26 | 50.58296 | 4.09334 | 19607 ft | 381 kts | 268° |
| 2026-04-29 09:27 | 50.58153 | 4.05138 | 20210 ft | 385 kts | 268° |
| 2026-04-29 09:27 | 50.58008 | 4.00906 | 20811 ft | 390 kts | 267° |
| 2026-04-29 09:27 | 50.57860 | 3.96631 | 21405 ft | 393 kts | 267° |
| 2026-04-29 09:27 | 50.57705 | 3.92304 | 21979 ft | 398 kts | 265° |
| 2026-04-29 09:28 | 50.57115 | 3.88055 | 22550 ft | 400 kts | 246° |
| 2026-04-29 09:28 | 50.55744 | 3.84318 | 23093 ft | 400 kts | 228° |
| 2026-04-29 09:28 | 50.53704 | 3.81378 | 23647 ft | 398 kts | 210° |
| 2026-04-29 09:28 | 50.51264 | 3.79343 | 24131 ft | 398 kts | 201° |
| 2026-04-29 09:29 | 50.48742 | 3.77496 | 24616 ft | 401 kts | 200° |
| 2026-04-29 09:29 | 50.43621 | 3.73906 | 25659 ft | 405 kts | 200° |
| 2026-04-29 09:29 | 50.41032 | 3.72130 | 26147 ft | 408 kts | 200° |
| 2026-04-29 09:30 | 50.38412 | 3.70345 | 26645 ft | 410 kts | 200° |
| 2026-04-29 09:30 | 50.35877 | 3.68623 | 27121 ft | 412 kts | 200° |
| 2026-04-29 09:30 | 50.33264 | 3.66854 | 27593 ft | 415 kts | 200° |
| 2026-04-29 09:30 | 50.30604 | 3.65056 | 28069 ft | 418 kts | 201° |
| 2026-04-29 09:31 | 50.27920 | 3.63244 | 28535 ft | 420 kts | 201° |
| 2026-04-29 09:31 | 50.25226 | 3.61426 | 28986 ft | 423 kts | 201° |
| 2026-04-29 09:31 | 50.22512 | 3.59597 | 29457 ft | 425 kts | 202° |
| 2026-04-29 09:31 | 50.19795 | 3.57768 | 29974 ft | 425 kts | 203° |
| 2026-04-29 09:32 | 50.17070 | 3.55938 | 30425 ft | 427 kts | 204° |
| 2026-04-29 09:32 | 50.14336 | 3.54102 | 30841 ft | 428 kts | 205° |
| 2026-04-29 09:32 | 50.11599 | 3.52268 | 31245 ft | 429 kts | 205° |
| 2026-04-29 09:32 | 50.08852 | 3.50429 | 31622 ft | 430 kts | 206° |
| 2026-04-29 09:33 | 50.06224 | 3.48673 | 31978 ft | 432 kts | 206° |
| 2026-04-29 09:33 | 50.03451 | 3.46821 | 32336 ft | 434 kts | 206° |
| 2026-04-29 09:33 | 50.00705 | 3.44989 | 32668 ft | 436 kts | 206° |
| 2026-04-29 09:33 | 49.97910 | 3.43129 | 33012 ft | 438 kts | 206° |
| 2026-04-29 09:34 | 49.95069 | 3.41239 | 33354 ft | 440 kts | 206° |
| 2026-04-29 09:34 | 49.92248 | 3.39365 | 33678 ft | 442 kts | 206° |
| 2026-04-29 09:34 | 49.89438 | 3.37500 | 33997 ft | 445 kts | 206° |
| 2026-04-29 09:34 | 49.86598 | 3.35618 | 34315 ft | 446 kts | 206° |
| 2026-04-29 09:35 | 49.83744 | 3.33729 | 34700 ft | 445 kts | 206° |
| 2026-04-29 09:35 | 49.80897 | 3.31848 | 35079 ft | 444 kts | 206° |
| 2026-04-29 09:35 | 49.78046 | 3.29964 | 35433 ft | 444 kts | 206° |
| 2026-04-29 09:35 | 49.75201 | 3.28087 | 35783 ft | 444 kts | 205° |
| 2026-04-29 09:36 | 49.72359 | 3.26214 | 36123 ft | 444 kts | 205° |
| 2026-04-29 09:36 | 49.69519 | 3.24345 | 36471 ft | 443 kts | 205° |
| 2026-04-29 09:36 | 49.66680 | 3.22479 | 36812 ft | 442 kts | 205° |
| 2026-04-29 09:36 | 49.63853 | 3.20623 | 37164 ft | 441 kts | 205° |
| 2026-04-29 09:37 | 49.61067 | 3.18797 | 37530 ft | 439 kts | 205° |
| 2026-04-29 09:37 | 49.58216 | 3.16930 | 37890 ft | 438 kts | 205° |
| 2026-04-29 09:37 | 49.55459 | 3.15128 | 38242 ft | 436 kts | 204° |
| 2026-04-29 09:37 | 49.52672 | 3.13307 | 38606 ft | 434 kts | 204° |
| 2026-04-29 09:38 | 49.49986 | 3.11252 | 38907 ft | 431 kts | 216° |
| 2026-04-29 09:38 | 49.47756 | 3.08208 | 39117 ft | 429 kts | 230° |
| 2026-04-29 09:38 | 49.44033 | 3.01002 | 39152 ft | 430 kts | 232° |
| 2026-04-29 09:39 | 49.40431 | 2.93691 | 39142 ft | 429 kts | 233° |
| 2026-04-29 09:39 | 49.36866 | 2.86353 | 39142 ft | 429 kts | 233° |
| 2026-04-29 09:40 | 49.33297 | 2.79003 | 39138 ft | 430 kts | 233° |
| 2026-04-29 09:40 | 49.29915 | 2.72055 | 39136 ft | 430 kts | 233° |
| 2026-04-29 09:41 | 49.26971 | 2.66020 | 39136 ft | 431 kts | 233° |
| 2026-04-29 09:41 | 49.23437 | 2.58795 | 39121 ft | 431 kts | 233° |
| 2026-04-29 09:42 | 49.19837 | 2.51455 | 39140 ft | 431 kts | 233° |
| 2026-04-29 09:42 | 49.16236 | 2.44131 | 39130 ft | 431 kts | 233° |
| 2026-04-29 09:43 | 49.12790 | 2.37144 | 39133 ft | 431 kts | 233° |
| 2026-04-29 09:43 | 49.09129 | 2.29741 | 39130 ft | 430 kts | 233° |
| 2026-04-29 09:44 | 49.05519 | 2.22460 | 39132 ft | 430 kts | 233° |
| 2026-04-29 09:44 | 49.01910 | 2.15199 | 39131 ft | 429 kts | 233° |
| 2026-04-29 09:45 | 48.98302 | 2.07962 | 39130 ft | 429 kts | 233° |
| 2026-04-29 09:45 | 48.94712 | 2.00780 | 39127 ft | 428 kts | 233° |
| 2026-04-29 09:46 | 48.91105 | 1.93584 | 39116 ft | 427 kts | 233° |
| 2026-04-29 09:46 | 48.87503 | 1.86416 | 39104 ft | 427 kts | 232° |
| 2026-04-29 09:47 | 48.83902 | 1.79269 | 39100 ft | 426 kts | 232° |
| 2026-04-29 09:47 | 48.80301 | 1.72141 | 39100 ft | 424 kts | 232° |
| 2026-04-29 09:48 | 48.76712 | 1.65057 | 39099 ft | 422 kts | 232° |
| 2026-04-29 09:48 | 48.73138 | 1.58020 | 39097 ft | 421 kts | 232° |
| 2026-04-29 09:49 | 48.69561 | 1.50995 | 39089 ft | 419 kts | 232° |
| 2026-04-29 09:49 | 48.66026 | 1.44071 | 39087 ft | 418 kts | 231° |
| 2026-04-29 09:50 | 48.62473 | 1.37130 | 39081 ft | 417 kts | 231° |
| 2026-04-29 09:50 | 48.58908 | 1.30183 | 39077 ft | 418 kts | 231° |
| 2026-04-29 09:51 | 48.55347 | 1.23261 | 39073 ft | 418 kts | 231° |
| 2026-04-29 09:51 | 48.51772 | 1.16331 | 39067 ft | 418 kts | 231° |
| 2026-04-29 09:52 | 48.48192 | 1.09410 | 39062 ft | 418 kts | 230° |
| 2026-04-29 09:52 | 48.44604 | 1.02490 | 39063 ft | 418 kts | 230° |
| 2026-04-29 09:53 | 48.41015 | 0.95586 | 39059 ft | 418 kts | 230° |
| 2026-04-29 09:53 | 48.37427 | 0.88701 | 39048 ft | 418 kts | 230° |
| 2026-04-29 09:54 | 48.33849 | 0.81852 | 39041 ft | 419 kts | 230° |
| 2026-04-29 09:54 | 48.30232 | 0.74948 | 39045 ft | 420 kts | 230° |
| 2026-04-29 09:55 | 48.26614 | 0.68058 | 39037 ft | 420 kts | 230° |
| 2026-04-29 09:55 | 48.22984 | 0.61164 | 39025 ft | 421 kts | 230° |
| 2026-04-29 09:56 | 48.19960 | 0.55433 | 39027 ft | 421 kts | 230° |
| 2026-04-29 09:56 | 48.15718 | 0.47416 | 39022 ft | 421 kts | 229° |
| 2026-04-29 09:57 | 48.12683 | 0.41694 | 39028 ft | 422 kts | 229° |
| 2026-04-29 09:57 | 48.09025 | 0.34815 | 39021 ft | 423 kts | 229° |
| 2026-04-29 09:58 | 48.05349 | 0.27918 | 39013 ft | 424 kts | 229° |
| 2026-04-29 09:58 | 48.01661 | 0.21018 | 39019 ft | 425 kts | 229° |
| 2026-04-29 09:59 | 47.97970 | 0.14127 | 39024 ft | 426 kts | 229° |
| 2026-04-29 09:59 | 47.94278 | 0.07253 | 39019 ft | 426 kts | 229° |
| 2026-04-29 10:00 | 47.90562 | 0.00354 | 39013 ft | 427 kts | 229° |
| 2026-04-29 10:00 | 47.86842 | -0.06538 | 39010 ft | 427 kts | 229° |
| 2026-04-29 10:01 | 47.83100 | -0.13452 | 39007 ft | 428 kts | 229° |
| 2026-04-29 10:01 | 47.79353 | -0.20357 | 38984 ft | 429 kts | 229° |
| 2026-04-29 10:02 | 47.75599 | -0.27257 | 38989 ft | 429 kts | 229° |
| 2026-04-29 10:02 | 47.71834 | -0.34161 | 38997 ft | 430 kts | 229° |
| 2026-04-29 10:03 | 47.68087 | -0.41013 | 38989 ft | 430 kts | 229° |
| 2026-04-29 10:03 | 47.64316 | -0.47893 | 38986 ft | 429 kts | 229° |
| 2026-04-29 10:04 | 47.60540 | -0.54764 | 38986 ft | 429 kts | 229° |
| 2026-04-29 10:04 | 47.56764 | -0.61616 | 38985 ft | 429 kts | 229° |
| 2026-04-29 10:05 | 47.52992 | -0.68446 | 38983 ft | 429 kts | 229° |
| 2026-04-29 10:05 | 47.49205 | -0.75286 | 38977 ft | 429 kts | 229° |
| 2026-04-29 10:06 | 47.45413 | -0.82116 | 38972 ft | 429 kts | 229° |
| 2026-04-29 10:06 | 47.41622 | -0.88928 | 38974 ft | 429 kts | 229° |
| 2026-04-29 10:07 | 47.37831 | -0.95723 | 38971 ft | 429 kts | 229° |
| 2026-04-29 10:07 | 47.34051 | -1.02481 | 38972 ft | 429 kts | 229° |
| 2026-04-29 10:08 | 47.30253 | -1.09256 | 38969 ft | 428 kts | 229° |
| 2026-04-29 10:08 | 47.26453 | -1.16016 | 38968 ft | 428 kts | 229° |
| 2026-04-29 10:09 | 47.22651 | -1.22763 | 38968 ft | 427 kts | 229° |
| 2026-04-29 10:09 | 47.18849 | -1.29493 | 38967 ft | 427 kts | 229° |
| 2026-04-29 10:10 | 47.15052 | -1.36199 | 38966 ft | 427 kts | 229° |
| 2026-04-29 10:10 | 47.11248 | -1.42899 | 38966 ft | 426 kts | 229° |
| 2026-04-29 10:11 | 47.07471 | -1.49537 | 38966 ft | 426 kts | 229° |
| 2026-04-29 10:11 | 47.03641 | -1.56251 | 38967 ft | 426 kts | 229° |
| 2026-04-29 10:12 | 46.99858 | -1.62867 | 38965 ft | 426 kts | 229° |
| 2026-04-29 10:12 | 46.96045 | -1.69518 | 38959 ft | 426 kts | 229° |
| 2026-04-29 10:13 | 46.92236 | -1.76147 | 38955 ft | 426 kts | 229° |
| 2026-04-29 10:13 | 46.88423 | -1.82766 | 38952 ft | 425 kts | 229° |
| 2026-04-29 10:14 | 46.84598 | -1.89391 | 38942 ft | 426 kts | 229° |
| 2026-04-29 10:14 | 46.80771 | -1.96001 | 38934 ft | 426 kts | 229° |
| 2026-04-29 10:15 | 46.76970 | -2.02553 | 38934 ft | 426 kts | 229° |
| 2026-04-29 10:15 | 46.73136 | -2.09144 | 38926 ft | 426 kts | 229° |
| 2026-04-29 10:16 | 46.69938 | -2.14631 | 38930 ft | 426 kts | 229° |
| 2026-04-29 10:16 | 46.65450 | -2.22312 | 38927 ft | 426 kts | 229° |
| 2026-04-29 10:17 | 46.61602 | -2.28881 | 38928 ft | 426 kts | 229° |
| 2026-04-29 10:17 | 46.57751 | -2.35441 | 38926 ft | 426 kts | 229° |
| 2026-04-29 10:18 | 46.53909 | -2.41972 | 38929 ft | 425 kts | 229° |
| 2026-04-29 10:18 | 46.50081 | -2.48463 | 38931 ft | 425 kts | 229° |
| 2026-04-29 10:19 | 46.46234 | -2.54974 | 38932 ft | 425 kts | 229° |
| 2026-04-29 10:19 | 46.42373 | -2.61492 | 38928 ft | 425 kts | 229° |
| 2026-04-29 10:20 | 46.38518 | -2.67984 | 38922 ft | 425 kts | 229° |
| 2026-04-29 10:20 | 46.34678 | -2.74438 | 38924 ft | 425 kts | 229° |
| 2026-04-29 10:21 | 46.30810 | -2.80923 | 38922 ft | 425 kts | 229° |
| 2026-04-29 10:21 | 46.26956 | -2.87423 | 38919 ft | 425 kts | 231° |
| 2026-04-29 10:22 | 46.24956 | -2.90561 | 38903 ft | 424 kts | 218° |
| 2026-04-29 10:22 | 46.22558 | -2.93043 | 38917 ft | 425 kts | 218° |
| 2026-04-29 10:22 | 46.18012 | -2.98435 | 38917 ft | 425 kts | 220° |
| 2026-04-29 10:23 | 46.13455 | -3.03959 | 38910 ft | 425 kts | 220° |
| 2026-04-29 10:23 | 46.08954 | -3.09430 | 38907 ft | 425 kts | 220° |
| 2026-04-29 10:24 | 46.04429 | -3.14921 | 38904 ft | 425 kts | 220° |
| 2026-04-29 10:24 | 45.99895 | -3.20410 | 38904 ft | 425 kts | 220° |
| 2026-04-29 10:25 | 45.95398 | -3.25843 | 38902 ft | 425 kts | 220° |
| 2026-04-29 10:25 | 45.90871 | -3.31299 | 38900 ft | 425 kts | 220° |
| 2026-04-29 10:26 | 45.86346 | -3.36742 | 38898 ft | 425 kts | 220° |
| 2026-04-29 10:26 | 45.81812 | -3.42182 | 38897 ft | 425 kts | 220° |
| 2026-04-29 10:27 | 45.75007 | -3.50327 | 38893 ft | 425 kts | 220° |
| 2026-04-29 10:28 | 45.70470 | -3.55742 | 38884 ft | 424 kts | 220° |
| 2026-04-29 10:28 | 45.65930 | -3.61148 | 38883 ft | 424 kts | 220° |
| 2026-04-29 10:29 | 45.61397 | -3.66534 | 38883 ft | 424 kts | 220° |
| 2026-04-29 10:29 | 45.56888 | -3.71881 | 38883 ft | 423 kts | 220° |
| 2026-04-29 10:30 | 45.52349 | -3.77251 | 38873 ft | 423 kts | 220° |
| 2026-04-29 10:30 | 45.47818 | -3.82601 | 38872 ft | 423 kts | 220° |
| 2026-04-29 10:31 | 45.43273 | -3.87955 | 38869 ft | 423 kts | 220° |
| 2026-04-29 10:31 | 45.38762 | -3.93259 | 38868 ft | 423 kts | 220° |
| 2026-04-29 10:32 | 45.34222 | -3.98584 | 38866 ft | 423 kts | 220° |
| 2026-04-29 10:32 | 45.29683 | -4.03897 | 38863 ft | 423 kts | 220° |
| 2026-04-29 10:33 | 45.25138 | -4.09205 | 38862 ft | 423 kts | 220° |
| 2026-04-29 10:33 | 45.20595 | -4.14500 | 38859 ft | 422 kts | 220° |
| 2026-04-29 10:34 | 45.16055 | -4.19781 | 38853 ft | 422 kts | 220° |
| 2026-04-29 10:34 | 45.11534 | -4.25027 | 38862 ft | 422 kts | 220° |
| 2026-04-29 10:35 | 45.06992 | -4.30286 | 38854 ft | 422 kts | 220° |
| 2026-04-29 10:35 | 45.02444 | -4.35543 | 38857 ft | 422 kts | 220° |
| 2026-04-29 10:36 | 44.97897 | -4.40786 | 38845 ft | 421 kts | 220° |
| 2026-04-29 10:36 | 44.93359 | -4.46008 | 38850 ft | 421 kts | 220° |
| 2026-04-29 10:37 | 44.88809 | -4.51234 | 38858 ft | 421 kts | 220° |
| 2026-04-29 10:37 | 44.84290 | -4.56413 | 38844 ft | 421 kts | 220° |
| 2026-04-29 10:38 | 44.79743 | -4.61611 | 38839 ft | 421 kts | 220° |
| 2026-04-29 10:38 | 44.75196 | -4.66800 | 38854 ft | 420 kts | 220° |
| 2026-04-29 10:39 | 44.70650 | -4.71977 | 38842 ft | 420 kts | 220° |
| 2026-04-29 10:39 | 44.66106 | -4.77142 | 38847 ft | 420 kts | 220° |
| 2026-04-29 10:40 | 44.61561 | -4.82299 | 38841 ft | 420 kts | 220° |
| 2026-04-29 10:40 | 44.57011 | -4.87450 | 38842 ft | 420 kts | 220° |
| 2026-04-29 10:41 | 44.52491 | -4.92558 | 38840 ft | 420 kts | 220° |
| 2026-04-29 10:41 | 44.47771 | -4.97426 | 38847 ft | 421 kts | 217° |
| 2026-04-29 10:42 | 44.43009 | -5.02194 | 38838 ft | 421 kts | 217° |
| 2026-04-29 10:42 | 44.38283 | -5.06939 | 38840 ft | 421 kts | 217° |
| 2026-04-29 10:43 | 44.34291 | -5.10942 | 38837 ft | 421 kts | 217° |
| 2026-04-29 10:43 | 44.29558 | -5.15680 | 38839 ft | 421 kts | 217° |
| 2026-04-29 10:44 | 44.24789 | -5.20444 | 38837 ft | 421 kts | 217° |
| 2026-04-29 10:44 | 44.20012 | -5.25206 | 38840 ft | 422 kts | 217° |
| 2026-04-29 10:45 | 44.15238 | -5.29955 | 38839 ft | 422 kts | 217° |
| 2026-04-29 10:45 | 44.10458 | -5.34701 | 38841 ft | 422 kts | 217° |
| 2026-04-29 10:46 | 44.05667 | -5.39448 | 38840 ft | 423 kts | 217° |
| 2026-04-29 10:46 | 44.00864 | -5.44198 | 38840 ft | 423 kts | 216° |
| 2026-04-29 10:47 | 43.96097 | -5.48902 | 38833 ft | 423 kts | 216° |
| 2026-04-29 10:47 | 43.91287 | -5.53639 | 38840 ft | 424 kts | 216° |
| 2026-04-29 10:48 | 43.86483 | -5.58361 | 38834 ft | 424 kts | 216° |
| 2026-04-29 10:48 | 43.81654 | -5.63098 | 38841 ft | 424 kts | 216° |
| 2026-04-29 10:49 | 43.76833 | -5.67817 | 38834 ft | 425 kts | 216° |
| 2026-04-29 10:49 | 43.72003 | -5.72535 | 38833 ft | 425 kts | 216° |
| 2026-04-29 10:50 | 43.67195 | -5.77224 | 38845 ft | 425 kts | 216° |
| 2026-04-29 10:50 | 43.62362 | -5.81925 | 38851 ft | 425 kts | 216° |
| 2026-04-29 10:51 | 43.57522 | -5.86626 | 38852 ft | 425 kts | 216° |
| 2026-04-29 10:51 | 43.52675 | -5.91324 | 38854 ft | 426 kts | 216° |
| 2026-04-29 10:52 | 43.47831 | -5.96008 | 38850 ft | 426 kts | 216° |
| 2026-04-29 10:52 | 43.42975 | -6.00695 | 38851 ft | 426 kts | 216° |
| 2026-04-29 10:53 | 43.38118 | -6.05374 | 38841 ft | 426 kts | 216° |
| 2026-04-29 10:53 | 43.33250 | -6.10054 | 38838 ft | 427 kts | 216° |
| 2026-04-29 10:54 | 43.28388 | -6.14720 | 38833 ft | 427 kts | 216° |
| 2026-04-29 10:54 | 43.23542 | -6.19360 | 38828 ft | 427 kts | 216° |
| 2026-04-29 10:55 | 43.18656 | -6.24029 | 38817 ft | 427 kts | 215° |
| 2026-04-29 10:55 | 43.13770 | -6.28690 | 38817 ft | 428 kts | 215° |
| 2026-04-29 10:56 | 43.08867 | -6.33356 | 38814 ft | 428 kts | 215° |
| 2026-04-29 10:56 | 43.03976 | -6.38003 | 38822 ft | 428 kts | 215° |
| 2026-04-29 10:57 | 42.99072 | -6.42653 | 38813 ft | 429 kts | 215° |
| 2026-04-29 10:57 | 42.94197 | -6.47266 | 38812 ft | 429 kts | 215° |
| 2026-04-29 10:58 | 42.89273 | -6.51916 | 38803 ft | 429 kts | 215° |
| 2026-04-29 10:58 | 42.84349 | -6.56557 | 38808 ft | 429 kts | 215° |
| 2026-04-29 10:59 | 42.79482 | -6.61135 | 38803 ft | 429 kts | 215° |